createdAt,value
2023-04-18T00:01:45.663Z,102174.00
2023-04-18T00:04:14.432Z,102176.94
2023-04-18T00:06:44.352Z,102175.81
2023-04-18T00:09:12.337Z,102174.06
2023-04-18T00:11:40.757Z,102175.97
2023-04-18T00:14:10.418Z,102178.78
2023-04-18T00:16:39.076Z,102173.53
2023-04-18T00:19:08.649Z,102174.66
2023-04-18T00:21:37.249Z,102174.44
2023-04-18T00:24:07.036Z,102177.22
2023-04-18T00:26:34.945Z,102176.38
2023-04-18T00:29:05.675Z,102168.63
2023-04-18T00:31:36.423Z,102177.28
2023-04-18T00:34:04.390Z,102186.75
2023-04-18T00:36:32.299Z,102185.69
2023-04-18T00:39:00.230Z,102195.97
2023-04-18T00:41:31.278Z,102188.88
2023-04-18T00:43:59.525Z,102188.25
2023-04-18T00:46:27.488Z,102188.81
2023-04-18T00:48:55.671Z,102182.91
2023-04-18T00:51:23.674Z,102187.78
2023-04-18T00:53:52.149Z,102188.78
2023-04-18T00:56:20.437Z,102183.69
2023-04-18T00:58:49.826Z,102180.44
2023-04-18T01:01:19.519Z,102186.50
2023-04-18T01:03:47.491Z,102186.28
2023-04-18T01:06:16.562Z,102185.47
2023-04-18T01:08:46.180Z,102185.53
2023-04-18T01:11:14.253Z,102183.75
2023-04-18T01:13:42.225Z,102181.41
2023-04-18T01:16:11.837Z,102178.16
2023-04-18T01:18:40.176Z,102178.28
2023-04-18T01:21:09.947Z,102176.69
2023-04-18T01:23:38.106Z,102178.41
2023-04-18T01:26:08.545Z,102183.66
2023-04-18T01:28:38.185Z,102177.16
2023-04-18T01:31:06.580Z,102180.41
2023-04-18T01:33:38.101Z,102181.81
2023-04-18T01:36:06.666Z,102171.75
2023-04-18T01:38:34.657Z,102175.81
2023-04-18T01:41:03.401Z,102168.19
2023-04-18T01:43:32.785Z,102173.53
2023-04-18T01:46:00.702Z,102177.66
2023-04-18T01:48:29.573Z,102176.06
2023-04-18T01:50:57.531Z,102177.03
2023-04-18T01:53:25.642Z,102180.34
2023-04-18T01:55:53.609Z,102179.19
2023-04-18T01:58:23.673Z,102169.66
2023-04-18T02:00:54.663Z,102166.09
2023-04-18T02:03:22.947Z,102169.63
2023-04-18T02:05:51.413Z,102157.94
2023-04-18T02:08:19.716Z,102159.09
2023-04-18T02:10:47.846Z,102165.25
2023-04-18T02:13:16.136Z,102162.41
2023-04-18T02:15:45.178Z,102165.56
2023-04-18T02:18:18.269Z,102158.50
2023-04-18T02:20:48.801Z,102164.34
2023-04-18T02:23:17.085Z,102163.53
2023-04-18T02:25:45.269Z,102163.19
2023-04-18T02:28:13.255Z,102167.41
2023-04-18T02:30:41.398Z,102166.78
2023-04-18T02:33:09.433Z,102164.84
2023-04-18T02:35:39.877Z,102171.91
2023-04-18T02:38:07.875Z,102178.66
2023-04-18T02:40:35.735Z,102180.28
2023-04-18T02:43:03.748Z,102185.41
2023-04-18T02:45:32.755Z,102178.66
2023-04-18T02:48:02.518Z,102176.94
2023-04-18T02:50:30.781Z,102176.72
2023-04-18T02:53:00.651Z,102182.97
2023-04-18T02:55:39.179Z,102179.41
2023-04-18T02:58:07.269Z,102178.38
2023-04-18T03:01:01.134Z,102181.94
2023-04-18T03:03:47.798Z,102178.31
2023-04-18T03:06:29.577Z,102183.75
2023-04-18T03:09:00.134Z,102180.16
2023-04-18T03:11:28.540Z,102190.69
2023-04-18T03:13:56.951Z,102186.22
2023-04-18T03:16:28.313Z,102184.44
2023-04-18T03:18:56.175Z,102187.50
2023-04-18T03:21:24.618Z,102189.78
2023-04-18T03:23:53.041Z,102189.22
2023-04-18T03:26:25.236Z,102192.53
2023-04-18T03:28:54.572Z,102187.66
2023-04-18T03:31:22.777Z,102186.59
2023-04-18T03:33:51.655Z,102194.94
2023-04-18T03:36:25.170Z,102188.13
2023-04-18T03:38:55.415Z,102194.38
2023-04-18T03:41:26.209Z,102198.50
2023-04-18T03:43:55.920Z,102194.28
2023-04-18T03:46:24.594Z,102187.31
2023-04-18T03:48:55.174Z,102187.44
2023-04-18T03:51:23.280Z,102190.91
2023-04-18T03:53:51.330Z,102191.66
2023-04-18T03:56:19.576Z,102194.31
2023-04-18T03:58:54.102Z,102192.47
2023-04-18T04:01:23.402Z,102191.81
2023-04-18T04:03:53.523Z,102192.81
2023-04-18T04:06:21.822Z,102197.69
2023-04-18T04:08:49.736Z,102198.84
2023-04-18T04:11:22.774Z,102201.41
2023-04-18T04:13:51.095Z,102196.13
2023-04-18T04:16:24.540Z,102201.22
2023-04-18T04:18:54.241Z,102198.78
2023-04-18T04:21:27.112Z,102201.53
2023-04-18T04:23:55.271Z,102203.53
2023-04-18T04:26:31.745Z,102209.50
2023-04-18T04:29:08.048Z,102211.34
2023-04-18T04:31:38.959Z,102208.03
2023-04-18T04:34:08.763Z,102215.16
2023-04-18T04:36:39.691Z,102214.72
2023-04-18T04:39:08.648Z,102211.41
2023-04-18T04:42:04.310Z,102214.63
2023-04-18T04:44:41.574Z,102215.53
2023-04-18T04:47:11.569Z,102224.59
2023-04-18T04:49:40.807Z,102215.66
2023-04-18T04:52:09.077Z,102224.47
2023-04-18T04:54:37.285Z,102216.75
2023-04-18T04:57:08.032Z,102220.97
2023-04-18T04:59:36.565Z,102225.97
2023-04-18T05:02:04.785Z,102230.72
2023-04-18T05:04:34.361Z,102223.56
2023-04-18T05:07:02.428Z,102222.91
2023-04-18T05:09:30.410Z,102222.78
2023-04-18T05:12:01.858Z,102226.00
2023-04-18T05:14:31.053Z,102222.63
2023-04-18T05:16:59.159Z,102229.38
2023-04-18T05:19:27.250Z,102231.00
2023-04-18T05:21:57.207Z,102231.72
2023-04-18T05:24:25.187Z,102233.41
2023-04-18T05:26:53.531Z,102238.66
2023-04-18T05:29:21.507Z,102237.22
2023-04-18T05:31:49.402Z,102238.91
2023-04-18T05:34:17.640Z,102230.25
2023-04-18T05:36:47.666Z,102235.16
2023-04-18T05:39:17.078Z,102238.16
2023-04-18T05:41:45.067Z,102232.81
2023-04-18T05:44:13.101Z,102235.03
2023-04-18T05:46:41.147Z,102232.94
2023-04-18T05:49:09.590Z,102237.88
2023-04-18T05:51:37.794Z,102238.41
2023-04-18T05:54:05.984Z,102234.69
2023-04-18T05:56:35.547Z,102237.59
2023-04-18T05:59:03.586Z,102230.97
2023-04-18T06:01:32.480Z,102231.59
2023-04-18T06:04:00.608Z,102241.50
2023-04-18T06:06:28.998Z,102244.25
2023-04-18T06:08:56.967Z,102251.28
2023-04-18T06:11:24.941Z,102243.63
2023-04-18T06:13:55.902Z,102242.34
2023-04-18T06:16:24.182Z,102247.75
2023-04-18T06:18:52.242Z,102247.47
2023-04-18T06:21:21.314Z,102241.84
2023-04-18T06:23:51.241Z,102244.13
2023-04-18T06:26:19.274Z,102245.91
2023-04-18T06:28:47.425Z,102242.44
2023-04-18T06:31:16.768Z,102242.00
2023-04-18T06:33:44.778Z,102249.25
2023-04-18T06:36:12.929Z,102248.34
2023-04-18T06:38:40.810Z,102254.44
2023-04-18T06:41:08.954Z,102254.03
2023-04-18T06:43:36.870Z,102261.84
2023-04-18T06:46:06.083Z,102251.66
2023-04-18T06:48:35.752Z,102262.19
2023-04-18T06:51:04.068Z,102263.78
2023-04-18T06:53:32.166Z,102261.94
2023-04-18T06:56:00.499Z,102261.59
2023-04-18T06:58:28.637Z,102267.72
2023-04-18T07:00:56.593Z,102267.41
2023-04-18T07:03:24.991Z,102259.41
2023-04-18T07:05:55.551Z,102255.66
2023-04-18T07:08:23.588Z,102263.25
2023-04-18T07:10:51.623Z,102264.16
2023-04-18T07:13:19.674Z,102260.97
2023-04-18T07:15:47.803Z,102254.09
2023-04-18T07:18:23.344Z,102252.56
2023-04-18T07:20:59.946Z,102258.25
2023-04-18T07:23:27.965Z,102253.63
2023-04-18T07:25:55.982Z,102264.06
2023-04-18T07:28:24.155Z,102262.59
2023-04-18T07:30:54.773Z,102271.34
2023-04-18T07:33:22.875Z,102265.50
2023-04-18T07:35:52.924Z,102263.72
2023-04-18T07:38:22.394Z,102269.88
2023-04-18T07:40:57.769Z,102268.91
2023-04-18T07:43:25.742Z,102269.09
2023-04-18T07:45:56.283Z,102268.25
2023-04-18T07:48:25.218Z,102268.50
2023-04-18T07:50:53.267Z,102268.97
2023-04-18T07:53:22.793Z,102266.97
2023-04-18T07:55:51.244Z,102272.03
2023-04-18T07:58:19.220Z,102273.28
2023-04-18T08:00:47.428Z,102273.84
2023-04-18T08:03:16.377Z,102272.88
2023-04-18T08:05:44.476Z,102272.34
2023-04-18T08:08:13.329Z,102271.28
2023-04-18T08:10:42.803Z,102274.78
2023-04-18T08:13:13.007Z,102272.72
2023-04-18T08:15:40.981Z,102278.41
2023-04-18T08:18:09.042Z,102280.41
2023-04-18T08:20:37.273Z,102280.09
2023-04-18T08:23:08.698Z,102276.81
2023-04-18T08:25:39.773Z,102278.50
2023-04-18T08:28:09.577Z,102278.22
2023-04-18T08:30:37.928Z,102273.34
2023-04-18T08:33:06.347Z,102277.66
2023-04-18T08:35:35.236Z,102283.75
2023-04-18T08:38:03.352Z,102280.03
2023-04-18T08:40:31.395Z,102276.69
2023-04-18T08:43:04.901Z,102286.66
2023-04-18T08:45:36.516Z,102287.81
2023-04-18T08:48:04.819Z,102286.16
2023-04-18T08:50:33.149Z,102285.66
2023-04-18T08:53:02.135Z,102278.66
2023-04-18T08:55:30.296Z,102277.63
2023-04-18T08:57:59.569Z,102270.44
2023-04-18T09:00:30.565Z,102274.31
2023-04-18T09:03:00.428Z,102283.31
2023-04-18T09:05:28.689Z,102273.97
2023-04-18T09:07:57.441Z,102274.97
2023-04-18T09:10:30.898Z,102268.56
2023-04-18T09:13:01.125Z,102286.72
2023-04-18T09:15:30.117Z,102279.38
2023-04-18T09:18:02.613Z,102279.44
2023-04-18T09:20:37.756Z,102277.69
2023-04-18T09:23:11.480Z,102276.00
2023-04-18T09:25:48.251Z,102276.13
2023-04-18T09:28:24.391Z,102277.22
2023-04-18T09:30:53.348Z,102278.31
2023-04-18T09:33:29.210Z,102280.34
2023-04-18T09:36:00.207Z,102276.75
2023-04-18T09:38:40.330Z,102271.94
2023-04-18T09:41:09.056Z,102275.59
2023-04-18T09:43:38.253Z,102282.25
2023-04-18T09:46:15.435Z,102277.84
2023-04-18T09:48:44.915Z,102273.09
2023-04-18T09:51:20.176Z,102274.59
2023-04-18T09:54:03.395Z,102272.19
2023-04-18T09:59:49.381Z,102280.38
2023-04-18T10:02:26.763Z,102276.66
2023-04-18T10:04:57.369Z,102273.41
2023-04-18T10:07:27.168Z,102269.41
2023-04-18T10:09:55.064Z,102274.97
2023-04-18T10:12:24.285Z,102278.13
2023-04-18T10:14:52.577Z,102265.31
2023-04-18T10:17:21.561Z,102269.78
2023-04-18T10:20:08.449Z,102269.88
2023-04-18T10:22:36.667Z,102271.44
2023-04-18T10:25:05.119Z,102262.84
2023-04-18T10:28:00.075Z,102261.16
2023-04-18T10:30:42.730Z,102259.53
2023-04-18T10:33:33.581Z,102259.53
2023-04-18T10:36:14.880Z,102263.97
2023-04-18T10:38:47.497Z,102262.78
2023-04-18T10:41:17.851Z,102276.16
2023-04-18T10:44:19.187Z,102270.91
2023-04-18T10:47:21.827Z,102272.13
2023-04-18T10:50:06.329Z,102268.47
2023-04-18T10:52:35.998Z,102269.41
2023-04-18T10:55:14.109Z,102261.94
2023-04-18T10:57:44.464Z,102264.31
2023-04-18T11:00:17.220Z,102265.78
2023-04-18T11:02:57.612Z,102265.84
2023-04-18T11:05:28.801Z,102259.97
2023-04-18T11:07:58.367Z,102265.00
2023-04-18T11:10:27.793Z,102266.22
2023-04-18T11:12:57.306Z,102263.00
2023-04-18T11:15:27.532Z,102262.16
2023-04-18T11:18:04.006Z,102270.00
2023-04-18T11:20:39.581Z,102269.81
2023-04-18T11:23:17.065Z,102266.63
2023-04-18T11:25:45.815Z,102258.53
2023-04-18T11:28:13.883Z,102261.78
2023-04-18T11:30:42.926Z,102256.31
2023-04-18T11:33:12.398Z,102248.81
2023-04-18T11:35:41.080Z,102260.53
2023-04-18T11:38:12.911Z,102251.50
2023-04-18T11:40:47.982Z,102250.94
2023-04-18T11:43:21.861Z,102248.41
2023-04-18T11:45:56.913Z,102251.09
2023-04-18T11:48:25.011Z,102248.50
2023-04-18T11:50:53.127Z,102251.41
2023-04-18T11:53:34.911Z,102236.72
2023-04-18T11:56:03.748Z,102246.66
2023-04-18T11:58:32.889Z,102252.28
2023-04-18T12:01:01.721Z,102250.97
2023-04-18T12:03:30.297Z,102247.66
2023-04-18T12:06:01.647Z,102244.41
2023-04-18T12:08:33.742Z,102247.16
2023-04-18T12:11:01.754Z,102252.09
2023-04-18T12:13:34.475Z,102248.03
2023-04-18T12:16:03.147Z,102250.84
2023-04-18T12:18:31.385Z,102248.97
2023-04-18T12:21:02.193Z,102246.44
2023-04-18T12:23:32.038Z,102242.09
2023-04-18T12:26:03.126Z,102242.75
2023-04-18T12:28:32.103Z,102232.56
2023-04-18T12:31:00.491Z,102235.38
2023-04-18T12:33:30.589Z,102237.38
2023-04-18T12:36:00.751Z,102235.59
2023-04-18T12:38:28.808Z,102238.03
2023-04-18T12:40:56.862Z,102236.91
2023-04-18T12:43:26.783Z,102235.22
2023-04-18T12:45:55.073Z,102244.47
2023-04-18T12:48:23.157Z,102246.06
2023-04-18T12:50:51.338Z,102243.69
2023-04-18T12:53:19.332Z,102237.47
2023-04-18T12:55:47.369Z,102238.41
2023-04-18T12:58:18.505Z,102240.09
2023-04-18T13:00:48.069Z,102233.84
2023-04-18T13:03:16.388Z,102233.84
2023-04-18T13:05:44.627Z,102230.66
2023-04-18T13:08:17.700Z,102227.81
2023-04-18T13:10:46.103Z,102219.88
2023-04-18T13:13:14.240Z,102221.56
2023-04-18T13:15:42.544Z,102220.53
2023-04-18T13:18:11.978Z,102217.28
2023-04-18T13:20:39.982Z,102214.56
2023-04-18T13:23:07.959Z,102220.97
2023-04-18T13:25:36.021Z,102212.53
2023-04-18T13:28:04.016Z,102211.75
2023-04-18T13:30:32.109Z,102214.69
2023-04-18T13:33:00.144Z,102207.22
2023-04-18T13:35:29.729Z,102219.69
2023-04-18T13:37:57.796Z,102211.53
2023-04-18T13:40:26.454Z,102204.41
2023-04-18T13:42:54.616Z,102210.78
2023-04-18T13:45:22.971Z,102204.28
2023-04-18T13:47:51.286Z,102204.88
2023-04-18T13:50:20.288Z,102200.59
2023-04-18T13:52:51.764Z,102198.59
2023-04-18T13:55:19.852Z,102200.59
2023-04-18T13:57:47.956Z,102201.16
2023-04-18T14:00:16.961Z,102196.22
2023-04-18T14:02:45.337Z,102203.63
2023-04-18T14:05:13.452Z,102193.97
2023-04-18T14:07:41.612Z,102196.84
2023-04-18T14:10:12.258Z,102200.84
2023-04-18T14:12:40.331Z,102201.66
2023-04-18T14:15:09.799Z,102191.47
2023-04-18T14:17:37.917Z,102193.94
2023-04-18T14:20:07.777Z,102201.13
2023-04-18T14:22:35.723Z,102191.47
2023-04-18T14:25:03.892Z,102193.56
2023-04-18T14:27:33.335Z,102198.53
2023-04-18T14:30:01.294Z,102185.94
2023-04-18T14:32:29.223Z,102188.38
2023-04-18T14:34:58.753Z,102180.66
2023-04-18T14:37:29.208Z,102178.44
2023-04-18T14:39:57.250Z,102170.91
2023-04-18T14:42:25.354Z,102179.38
2023-04-18T14:44:55.364Z,102178.44
2023-04-18T14:47:24.404Z,102178.84
2023-04-18T14:49:52.514Z,102175.44
2023-04-18T14:52:20.427Z,102167.50
2023-04-18T14:54:48.486Z,102171.19
2023-04-18T14:57:16.525Z,102173.19
2023-04-18T14:59:44.492Z,102178.31
2023-04-18T15:02:15.143Z,102177.91
2023-04-18T15:04:48.206Z,102166.25
2023-04-18T15:07:16.331Z,102168.50
2023-04-18T15:09:44.305Z,102165.19
2023-04-18T15:12:12.451Z,102159.38
2023-04-18T15:14:42.144Z,102159.38
2023-04-18T15:17:10.258Z,102158.38
2023-04-18T15:19:42.129Z,102159.44
2023-04-18T15:22:12.764Z,102157.84
2023-04-18T15:24:41.250Z,102164.16
2023-04-18T15:27:09.516Z,102167.66
2023-04-18T15:29:38.246Z,102163.50
2023-04-18T15:32:06.528Z,102148.41
2023-04-18T15:34:34.731Z,102156.50
2023-04-18T15:37:04.471Z,102165.22
2023-04-18T15:39:34.444Z,102158.31
2023-04-18T15:42:05.021Z,102161.72
2023-04-18T15:44:33.288Z,102156.72
2023-04-18T15:47:01.861Z,102159.28
2023-04-18T15:49:30.466Z,102161.81
2023-04-18T15:51:58.608Z,102167.66
2023-04-18T15:54:27.932Z,102162.28
2023-04-18T15:56:56.117Z,102169.09
2023-04-18T15:59:24.553Z,102157.03
2023-04-18T16:01:52.792Z,102162.97
2023-04-18T16:04:21.107Z,102161.25
2023-04-18T16:06:49.196Z,102161.53
2023-04-18T16:09:17.200Z,102153.22
2023-04-18T16:11:46.801Z,102152.00
2023-04-18T16:14:15.066Z,102166.56
2023-04-18T16:16:46.535Z,102161.44
2023-04-18T16:19:14.975Z,102156.63
2023-04-18T16:21:43.105Z,102166.34
2023-04-18T16:24:11.347Z,102162.97
2023-04-18T16:26:39.474Z,102163.16
2023-04-18T16:29:08.902Z,102169.22
2023-04-18T16:31:37.110Z,102162.31
2023-04-18T16:34:05.280Z,102164.69
2023-04-18T16:36:34.723Z,102165.28
2023-04-18T16:39:02.777Z,102172.91
2023-04-18T16:41:30.650Z,102164.63
2023-04-18T16:43:58.656Z,102167.34
2023-04-18T16:46:31.278Z,102166.69
2023-04-18T16:49:01.369Z,102174.13
2023-04-18T16:51:29.797Z,102169.25
2023-04-18T16:53:57.912Z,102165.75
2023-04-18T16:56:26.653Z,102170.00
2023-04-18T16:58:54.909Z,102169.44
2023-04-18T17:01:23.013Z,102170.78
2023-04-18T17:03:52.527Z,102172.16
2023-04-18T17:06:22.658Z,102170.19
2023-04-18T17:08:53.348Z,102173.47
2023-04-18T17:11:21.694Z,102173.47
2023-04-18T17:13:51.219Z,102180.91
2023-04-18T17:16:19.480Z,102171.66
2023-04-18T17:18:47.405Z,102179.19
2023-04-18T17:21:16.951Z,102184.41
2023-04-18T17:23:44.982Z,102181.34
2023-04-18T17:26:13.497Z,102187.31
2023-04-18T17:28:41.631Z,102182.25
2023-04-18T17:31:10.424Z,102189.00
2023-04-18T17:33:38.749Z,102191.91
2023-04-18T17:36:07.252Z,102185.84
2023-04-18T17:38:36.650Z,102168.09
2023-04-18T17:41:05.688Z,102189.19
2023-04-18T17:43:33.861Z,102191.00
2023-04-18T17:46:03.619Z,102191.00
2023-04-18T17:48:31.942Z,102198.81
2023-04-18T17:50:59.921Z,102191.81
2023-04-18T17:53:28.818Z,102196.78
2023-04-18T17:55:59.770Z,102198.56
2023-04-18T17:58:28.129Z,102195.94
2023-04-18T18:00:56.399Z,102192.59
2023-04-18T18:03:24.898Z,102198.03
2023-04-18T18:05:54.930Z,102209.00
2023-04-18T18:08:23.114Z,102210.97
2023-04-18T18:10:51.314Z,102204.31
2023-04-18T18:13:20.764Z,102200.56
2023-04-18T18:15:49.007Z,102208.22
2023-04-18T18:18:29.747Z,102214.47
2023-04-18T18:20:58.217Z,102211.94
2023-04-18T18:23:26.579Z,102208.63
2023-04-18T18:25:54.731Z,102215.31
2023-04-18T18:30:52.421Z,102210.59
2023-04-18T18:33:20.472Z,102222.16
2023-04-18T18:35:48.474Z,102227.41
2023-04-18T18:38:16.519Z,102227.66
2023-04-18T18:40:44.613Z,102228.22
2023-04-18T18:43:12.973Z,102232.56
2023-04-18T18:45:42.391Z,102244.66
2023-04-18T18:48:10.570Z,102234.25
2023-04-18T18:50:38.546Z,102236.66
2023-04-18T18:53:07.636Z,102228.88
2023-04-18T18:55:36.532Z,102241.50
2023-04-18T18:58:07.761Z,102244.19
2023-04-18T19:00:35.893Z,102246.41
2023-04-18T19:03:05.630Z,102244.78
2023-04-18T19:05:34.075Z,102245.00
2023-04-18T19:08:03.969Z,102252.41
2023-04-18T19:10:32.222Z,102252.00
2023-04-18T19:13:03.688Z,102253.56
2023-04-18T19:15:31.901Z,102252.84
2023-04-18T19:18:01.251Z,102256.91
2023-04-18T19:20:31.379Z,102256.38
2023-04-18T19:23:00.148Z,102257.56
2023-04-18T19:25:28.339Z,102264.81
2023-04-18T19:27:56.616Z,102261.69
2023-04-18T19:30:25.125Z,102263.69
2023-04-18T19:32:53.859Z,102260.84
2023-04-18T19:35:22.170Z,102266.13
2023-04-18T19:37:52.225Z,102263.78
2023-04-18T19:40:20.739Z,102255.41
2023-04-18T19:42:48.876Z,102265.31
2023-04-18T19:45:17.866Z,102250.50
2023-04-18T19:47:47.869Z,102260.72
2023-04-18T19:50:17.125Z,102267.50
2023-04-18T19:52:45.325Z,102262.13
2023-04-18T19:55:15.255Z,102263.91
2023-04-18T19:57:44.743Z,102261.75
2023-04-18T20:00:14.700Z,102264.41
2023-04-18T20:02:43.751Z,102259.50
2023-04-18T20:05:12.890Z,102257.78
2023-04-18T20:07:41.562Z,102264.75
2023-04-18T20:10:10.869Z,102257.84
2023-04-18T20:12:40.694Z,102257.84
2023-04-18T20:15:10.050Z,102248.00
2023-04-18T20:17:38.737Z,102259.56
2023-04-18T20:20:10.654Z,102246.63
2023-04-18T20:22:40.301Z,102261.19
2023-04-18T20:25:08.902Z,102253.41
2023-04-18T20:27:36.954Z,102260.00
2023-04-18T20:30:08.509Z,102255.19
2023-04-18T20:32:37.035Z,102257.75
2023-04-18T20:35:05.915Z,102258.59
2023-04-18T20:37:36.701Z,102255.66
2023-04-18T20:40:08.048Z,102260.25
2023-04-18T20:42:36.760Z,102250.69
2023-04-18T20:45:10.857Z,102251.34
2023-04-18T20:47:41.240Z,102245.00
2023-04-18T20:50:10.515Z,102253.34
2023-04-18T20:52:38.664Z,102253.16
2023-04-18T20:55:07.480Z,102252.19
2023-04-18T20:57:36.302Z,102247.53
2023-04-18T21:00:07.214Z,102248.03
2023-04-18T21:02:35.360Z,102246.88
2023-04-18T21:05:03.714Z,102251.19
2023-04-18T21:07:32.142Z,102238.28
2023-04-18T21:10:00.091Z,102249.88
2023-04-18T21:12:28.255Z,102247.09
2023-04-18T21:14:56.277Z,102245.56
2023-04-18T21:17:25.884Z,102242.31
2023-04-18T21:19:53.932Z,102251.16
2023-04-18T21:22:21.877Z,102253.13
2023-04-18T21:24:49.886Z,102257.41
2023-04-18T21:27:17.861Z,102249.13
2023-04-18T21:29:45.955Z,102240.53
2023-04-18T21:32:13.947Z,102243.13
2023-04-18T21:34:43.444Z,102253.09
2023-04-18T21:37:11.448Z,102249.91
2023-04-18T21:39:39.414Z,102243.25
2023-04-18T21:42:07.416Z,102253.00
2023-04-18T21:44:35.531Z,102253.53
2023-04-18T21:47:03.449Z,102249.03
2023-04-18T21:49:31.448Z,102249.84
2023-04-18T21:52:01.254Z,102246.41
2023-04-18T21:54:29.198Z,102249.25
2023-04-18T21:56:57.128Z,102246.34
2023-04-18T21:59:25.145Z,102243.38
2023-04-18T22:01:53.154Z,102246.06
2023-04-18T22:04:23.753Z,102249.47
2023-04-18T22:06:54.042Z,102242.19
2023-04-18T22:09:23.492Z,102243.19
2023-04-18T22:11:51.822Z,102240.66
2023-04-18T22:14:19.992Z,102231.19
2023-04-18T22:16:50.147Z,102233.25
2023-04-18T22:19:19.115Z,102229.00
2023-04-18T22:21:47.116Z,102231.69
2023-04-18T22:24:15.171Z,102231.75
2023-04-18T22:26:44.735Z,102222.41
2023-04-18T22:29:12.710Z,102229.63
2023-04-18T22:31:40.685Z,102227.94
2023-04-18T22:34:08.557Z,102220.88
2023-04-18T22:36:37.520Z,102223.44
2023-04-18T22:39:06.155Z,102216.50
2023-04-18T22:41:34.052Z,102219.03
2023-04-18T22:44:03.369Z,102213.88
2023-04-18T22:46:32.753Z,102207.91
2023-04-18T22:49:00.836Z,102203.88
2023-04-18T22:51:28.975Z,102207.38
2023-04-18T22:53:56.950Z,102207.44
2023-04-18T22:56:24.879Z,102204.06
2023-04-18T22:58:52.754Z,102199.06
2023-04-18T23:01:22.157Z,102196.50
2023-04-18T23:03:50.306Z,102195.97
2023-04-18T23:06:18.506Z,102194.13
2023-04-18T23:08:46.545Z,102182.03
2023-04-18T23:11:14.739Z,102187.91
2023-04-18T23:13:42.833Z,102187.09
2023-04-18T23:16:10.945Z,102186.16
2023-04-18T23:18:40.327Z,102184.16
2023-04-18T23:21:08.489Z,102178.28
2023-04-18T23:23:36.458Z,102193.72
2023-04-18T23:26:05.010Z,102192.88
2023-04-18T23:28:33.942Z,102180.06
2023-04-18T23:31:02.143Z,102196.78
2023-04-18T23:33:31.117Z,102186.03
2023-04-18T23:36:00.835Z,102182.47
2023-04-18T23:38:28.906Z,102186.56
2023-04-18T23:40:56.982Z,102178.72
2023-04-18T23:43:24.990Z,102187.91
2023-04-18T23:45:53.571Z,102180.44
2023-04-18T23:48:25.168Z,102179.69
2023-04-18T23:50:54.341Z,102179.81
2023-04-18T23:53:24.786Z,102173.41
2023-04-18T23:55:54.349Z,102183.03
2023-04-18T23:58:22.495Z,102178.59
